Time;durP1;ratioP1;P1;durP2;ratioP2;P2;SDS_P1;SDS_P2;PMS_P1;PMS_P2;Temp;Humidity;BMP_temperature;BMP_pressure;BME280_temperature;BME280_humidity;BME280_pressure;Samples;Min_cycle;Max_cycle;Signal;HPM_P1;HPM_P2
2021/05/19 00:01:52;;;;;;;2.63;1.20;;;9.80;99.90;;;;;;5030313;28;20464;-54
2021/05/19 00:04:18;;;;;;;1.73;1.20;;;9.70;99.90;;;;;;5030365;28;20475;-54
2021/05/19 00:06:45;;;;;;;1.93;1.40;;;9.60;99.90;;;;;;5030265;28;20891;-54
2021/05/19 00:09:13;;;;;;;1.33;1.23;;;9.50;99.90;;;;;;5030385;28;20457;-54
2021/05/19 00:11:45;;;;;;;2.07;1.10;;;9.60;99.90;;;;;;5030958;28;20820;-54
2021/05/19 00:14:12;;;;;;;1.77;1.10;;;9.60;99.90;;;;;;5029452;28;20455;-54
2021/05/19 00:16:38;;;;;;;2.40;1.20;;;9.60;99.90;;;;;;5028984;28;20534;-54
2021/05/19 00:19:05;;;;;;;2.50;0.93;;;9.60;99.90;;;;;;5030495;28;20503;-54
2021/05/19 00:21:32;;;;;;;1.83;1.00;;;9.70;99.90;;;;;;5029238;28;20522;-54
2021/05/19 00:23:58;;;;;;;1.37;1.20;;;9.70;99.90;;;;;;5031535;28;20877;-54
2021/05/19 00:26:25;;;;;;;2.67;1.30;;;9.70;99.90;;;;;;5029584;28;20468;-54
2021/05/19 00:28:55;;;;;;;1.57;1.47;;;9.70;99.90;;;;;;5031091;28;20480;-54
2021/05/19 00:31:24;;;;;;;2.27;1.77;;;9.40;99.90;;;;;;5029739;28;20459;-55
2021/05/19 00:33:50;;;;;;;2.07;1.10;;;9.50;99.90;;;;;;5030448;28;20997;-55
2021/05/19 00:36:17;;;;;;;1.63;1.30;;;9.70;99.90;;;;;;5030169;28;20457;-55
2021/05/19 00:38:44;;;;;;;1.67;1.10;;;9.70;99.90;;;;;;5030839;28;20518;-54
2021/05/19 01:11:06;;;;;;;4.87;1.47;;;9.60;99.90;;;;;;5031062;28;20903;-54
2021/05/19 01:13:33;;;;;;;1.83;1.20;;;9.50;99.90;;;;;;5030477;28;20453;-54
2021/05/19 01:16:00;;;;;;;5.07;1.40;;;9.60;99.90;;;;;;5030522;28;20448;-54
2021/05/19 01:18:27;;;;;;;1.40;1.13;;;9.70;99.90;;;;;;5030603;28;20488;-54
2021/05/19 01:20:56;;;;;;;2.90;1.37;;;9.60;99.90;;;;;;5030656;28;20457;-55
2021/05/19 01:23:27;;;;;;;1.53;1.10;;;9.50;99.90;;;;;;5030837;28;21153;-55
2021/05/19 01:25:53;;;;;;;4.13;1.27;;;9.50;99.90;;;;;;5032590;28;20457;-55
2021/05/19 01:28:20;;;;;;;1.47;1.23;;;9.60;99.90;;;;;;5034037;28;20468;-55
2021/05/19 01:30:46;;;;;;;1.60;1.50;;;9.60;99.90;;;;;;5034046;28;20456;-54
2021/05/19 01:33:13;;;;;;;1.43;1.33;;;9.70;99.90;;;;;;5034079;28;20969;-55
2021/05/19 01:35:40;;;;;;;1.80;1.37;;;9.60;99.90;;;;;;5033804;28;20819;-54
2021/05/19 01:38:07;;;;;;;1.73;1.60;;;9.60;99.90;;;;;;5033822;28;20488;-54
2021/05/19 01:40:35;;;;;;;2.17;1.97;;;9.60;99.90;;;;;;5033693;28;20551;-54
2021/05/19 01:49:46;;;;;;;2.00;1.90;;;9.60;99.90;;;;;;5034067;28;20852;-55
2021/05/19 01:52:13;;;;;;;1.60;1.50;;;9.60;99.90;;;;;;5033795;28;20453;-55
2021/05/19 01:54:41;;;;;;;2.20;1.57;;;9.70;99.90;;;;;;5033418;28;20548;-54
2021/05/19 01:57:10;;;;;;;2.30;1.77;;;9.70;99.90;;;;;;5033629;28;20922;-55
2021/05/19 01:59:39;;;;;;;2.20;2.00;;;9.50;99.90;;;;;;5017900;28;20475;-54
2021/05/19 02:02:06;;;;;;;3.93;2.40;;;9.20;99.90;;;;;;5033077;28;20449;-55
2021/05/19 02:04:33;;;;;;;2.63;2.10;;;9.00;99.90;;;;;;5033271;28;20444;-54
2021/05/19 02:07:00;;;;;;;2.47;2.10;;;9.00;99.90;;;;;;5033323;28;21024;-55
2021/05/19 02:09:28;;;;;;;2.50;2.10;;;9.00;99.90;;;;;;5033822;28;20819;-55
2021/05/19 02:11:54;;;;;;;3.00;2.20;;;9.10;99.90;;;;;;5032770;28;20452;-55
2021/05/19 02:14:22;;;;;;;2.47;2.27;;;9.20;99.90;;;;;;5033990;28;20510;-54
2021/05/19 02:16:49;;;;;;;3.50;2.40;;;9.30;99.90;;;;;;5033607;28;20480;-54
2021/05/19 02:19:16;;;;;;;1.97;1.87;;;9.30;99.90;;;;;;5033783;28;20511;-54
2021/05/19 02:21:44;;;;;;;2.90;2.53;;;9.30;99.90;;;;;;5033312;28;20453;-55
2021/05/19 02:24:11;;;;;;;2.23;1.90;;;9.30;99.90;;;;;;5033313;28;20448;-55
2021/05/19 02:26:38;;;;;;;3.43;1.70;;;9.30;99.90;;;;;;5033069;28;20452;-54
2021/05/19 02:29:06;;;;;;;6.17;2.17;;;9.20;99.90;;;;;;5033356;28;20994;-55
2021/05/19 02:31:33;;;;;;;3.73;2.00;;;8.90;99.90;;;;;;5033066;28;20452;-55
2021/05/19 02:34:00;;;;;;;2.13;1.70;;;8.80;99.90;;;;;;5033331;28;20459;-55
2021/05/19 02:36:27;;;;;;;1.90;1.43;;;9.00;99.90;;;;;;5032542;28;20821;-54
2021/05/19 02:38:54;;;;;;;2.50;1.60;;;9.10;99.90;;;;;;5033142;28;20522;-54
2021/05/19 02:41:21;;;;;;;1.50;1.40;;;9.10;99.90;;;;;;5041321;28;20456;-54
2021/05/19 02:43:47;;;;;;;1.70;1.40;;;9.20;99.90;;;;;;5040217;28;20452;-55
2021/05/19 02:46:14;;;;;;;1.43;1.20;;;9.10;99.90;;;;;;5032813;28;20453;-55
2021/05/19 02:48:42;;;;;;;1.57;1.47;;;9.20;99.90;;;;;;5033065;28;20468;-55
2021/05/19 02:51:10;;;;;;;2.07;1.67;;;9.30;99.90;;;;;;5032034;28;20889;-54
2021/05/19 02:53:37;;;;;;;2.03;1.23;;;9.30;99.90;;;;;;5032880;28;20964;-55
2021/05/19 02:56:04;;;;;;;1.57;1.47;;;9.10;99.90;;;;;;5032707;28;20452;-55
2021/05/19 02:58:31;;;;;;;2.50;1.60;;;9.20;99.90;;;;;;5032734;28;20881;-54
2021/05/19 03:00:57;;;;;;;1.60;1.50;;;9.30;99.90;;;;;;5032527;28;20449;-55
2021/05/19 03:03:24;;;;;;;2.80;1.40;;;9.40;99.90;;;;;;5032835;28;20448;-55
2021/05/19 03:05:52;;;;;;;1.87;1.60;;;9.40;99.90;;;;;;5032456;28;20448;-54
2021/05/19 03:08:19;;;;;;;2.30;1.60;;;9.40;99.90;;;;;;5032581;28;20472;-55
2021/05/19 03:10:45;;;;;;;2.10;1.67;;;9.40;99.90;;;;;;5032536;28;20888;-54
2021/05/19 03:13:12;;;;;;;2.73;1.87;;;9.50;99.90;;;;;;5032787;28;20444;-55
2021/05/19 03:15:38;;;;;;;6.10;2.53;;;9.40;99.90;;;;;;5032292;28;20453;-55
2021/05/19 03:18:05;;;;;;;11.90;4.20;;;9.40;99.90;;;;;;5032402;28;20488;-54
2021/05/19 03:20:32;;;;;;;7.77;4.20;;;9.30;99.90;;;;;;5031883;28;20452;-54
2021/05/19 03:22:59;;;;;;;5.10;3.10;;;9.30;99.90;;;;;;5032680;28;20460;-54
2021/05/19 03:25:26;;;;;;;5.03;2.40;;;9.30;99.90;;;;;;5032194;28;20946;-54
2021/05/19 03:27:53;;;;;;;3.40;1.83;;;9.40;99.90;;;;;;5032489;28;20526;-54
2021/05/19 03:30:20;;;;;;;2.00;1.80;;;9.40;99.90;;;;;;5032393;28;20457;-54
2021/05/19 03:32:47;;;;;;;2.60;1.90;;;9.40;99.90;;;;;;5031818;28;20475;-55
2021/05/19 03:35:14;;;;;;;4.40;2.07;;;9.50;99.90;;;;;;5031960;28;20526;-55
2021/05/19 03:37:42;;;;;;;6.03;2.40;;;9.40;99.90;;;;;;5032071;28;20496;-54
2021/05/19 03:40:12;;;;;;;2.40;2.20;;;9.30;99.90;;;;;;5032233;28;20449;-54
2021/05/19 03:42:38;;;;;;;2.23;2.03;;;9.30;99.90;;;;;;5032009;28;20453;-55
2021/05/19 03:45:07;;;;;;;3.03;2.00;;;9.40;99.90;;;;;;5031855;28;21012;-55
2021/05/19 03:47:33;;;;;;;2.30;2.10;;;9.50;99.90;;;;;;5031154;28;20465;-54
2021/05/19 03:50:00;;;;;;;2.47;2.27;;;9.50;99.90;;;;;;5031944;28;20453;-55
2021/05/19 03:52:26;;;;;;;2.10;1.60;;;9.60;99.90;;;;;;5031762;28;20452;-54
2021/05/19 03:54:53;;;;;;;2.97;1.77;;;9.60;99.90;;;;;;5031927;28;20452;-54
2021/05/19 03:57:20;;;;;;;2.10;1.90;;;9.50;99.90;;;;;;5031737;28;20492;-54
2021/05/19 03:59:47;;;;;;;4.90;1.77;;;9.30;99.90;;;;;;5073377;22;20505;-49
2021/05/19 04:02:13;;;;;;;1.77;1.67;;;9.40;99.90;;;;;;5071486;28;20447;-49
2021/05/19 04:04:40;;;;;;;3.07;1.70;;;9.40;99.90;;;;;;5071441;28;20875;-50
2021/05/19 04:07:08;;;;;;;1.63;1.47;;;9.40;99.90;;;;;;5071481;28;20814;-51
2021/05/19 04:09:34;;;;;;;3.47;1.50;;;9.30;99.90;;;;;;5071914;28;20478;-51
2021/05/19 04:12:01;;;;;;;3.33;1.87;;;9.30;99.90;;;;;;5070869;28;20443;-51
2021/05/19 04:14:28;;;;;;;1.70;1.60;;;9.30;99.90;;;;;;5071493;28;20439;-51
2021/05/19 04:16:55;;;;;;;2.93;2.10;;;9.30;99.90;;;;;;5070513;28;20532;-51
2021/05/19 04:19:21;;;;;;;4.20;2.70;;;9.40;99.90;;;;;;5062440;28;20473;-51
2021/05/19 04:21:48;;;;;;;2.80;2.50;;;9.40;99.90;;;;;;5061216;28;20455;-51
2021/05/19 04:24:14;;;;;;;3.93;2.57;;;9.40;99.90;;;;;;5071708;28;20450;-51
2021/05/19 04:26:41;;;;;;;3.50;2.70;;;9.30;99.90;;;;;;5071426;28;20516;-51
2021/05/19 04:29:07;;;;;;;9.37;3.13;;;9.30;99.90;;;;;;5068063;28;20479;-50
2021/05/19 04:31:35;;;;;;;5.60;3.53;;;9.20;99.90;;;;;;5069001;28;20815;-51
2021/05/19 04:34:01;;;;;;;2.37;2.17;;;9.10;99.90;;;;;;5070732;28;20470;-51
2021/05/19 04:36:28;;;;;;;2.80;2.17;;;9.10;99.90;;;;;;5078893;28;20469;-51
2021/05/19 04:38:54;;;;;;;4.10;1.90;;;9.10;99.90;;;;;;5067370;28;20475;-51
2021/05/19 04:41:24;;;;;;;2.70;1.90;;;9.10;99.90;;;;;;5070644;28;20458;-50
2021/05/19 04:43:50;;;;;;;3.70;2.40;;;9.10;99.90;;;;;;5070585;28;20530;-51
2021/05/19 04:46:17;;;;;;;2.77;1.60;;;9.00;99.90;;;;;;5070549;28;20454;-51
2021/05/19 04:48:44;;;;;;;3.57;2.43;;;9.00;99.90;;;;;;5076637;28;20451;-51
2021/05/19 04:51:11;;;;;;;3.83;2.13;;;8.90;99.90;;;;;;5070300;28;20450;-50
2021/05/19 04:53:37;;;;;;;3.80;2.70;;;9.00;99.90;;;;;;5071296;28;20454;-51
2021/05/19 04:56:04;;;;;;;4.17;2.30;;;9.00;99.90;;;;;;5069727;28;20455;-51
2021/05/19 04:58:31;;;;;;;2.50;2.30;;;9.00;99.90;;;;;;5071199;28;20478;-51
2021/05/19 05:00:57;;;;;;;3.10;2.43;;;9.20;99.90;;;;;;5074128;28;20531;-50
2021/05/19 05:03:24;;;;;;;3.70;2.70;;;9.10;99.90;;;;;;5073692;28;20944;-51
2021/05/19 05:05:53;;;;;;;3.83;2.10;;;9.20;99.90;;;;;;5074079;28;20446;-51
2021/05/19 05:08:20;;;;;;;4.23;2.40;;;9.10;99.90;;;;;;5074501;28;20948;-51
2021/05/19 05:10:46;;;;;;;2.37;2.17;;;9.20;99.90;;;;;;5074525;28;20474;-51
2021/05/19 05:13:13;;;;;;;4.33;2.90;;;9.30;99.90;;;;;;5066791;28;20447;-50
2021/05/19 05:15:40;;;;;;;2.57;1.60;;;9.40;99.90;;;;;;5073447;28;20495;-51
2021/05/19 05:18:06;;;;;;;2.03;1.73;;;9.50;99.90;;;;;;5073152;28;20494;-51
2021/05/19 05:20:33;;;;;;;1.83;1.70;;;9.60;99.90;;;;;;5073071;28;20466;-51
2021/05/19 05:23:00;;;;;;;3.00;1.90;;;9.70;99.90;;;;;;5074430;28;20465;-51
2021/05/19 05:25:26;;;;;;;2.83;1.90;;;9.70;99.90;;;;;;5074011;28;20455;-51
2021/05/19 05:27:54;;;;;;;2.87;2.23;;;9.80;99.90;;;;;;5074440;28;20866;-51
2021/05/19 05:30:21;;;;;;;3.03;2.80;;;9.80;99.90;;;;;;5074161;28;20466;-51
2021/05/19 05:32:48;;;;;;;2.27;2.07;;;9.80;99.90;;;;;;5073771;28;20956;-49
2021/05/19 05:35:14;;;;;;;2.60;2.20;;;9.80;99.90;;;;;;5073731;28;20443;-49
2021/05/19 05:37:41;;;;;;;3.20;2.57;;;9.90;99.90;;;;;;5070783;28;20556;-49
2021/05/19 05:40:09;;;;;;;2.60;2.20;;;10.00;99.90;;;;;;5072905;28;20467;-49
2021/05/19 05:42:36;;;;;;;4.07;2.27;;;10.00;99.90;;;;;;5072993;28;20451;-48
2021/05/19 05:45:05;;;;;;;4.93;3.23;;;10.10;99.90;;;;;;5071285;28;20497;-49
2021/05/19 05:47:33;;;;;;;3.40;2.20;;;10.20;99.90;;;;;;5053998;28;20534;-49
2021/05/19 05:50:02;;;;;;;3.00;2.50;;;10.20;99.90;;;;;;5054153;28;20914;-49
2021/05/19 05:52:29;;;;;;;4.90;2.67;;;10.40;99.90;;;;;;5067535;28;20475;-50
2021/05/19 05:54:55;;;;;;;3.30;2.47;;;10.40;99.90;;;;;;5073485;28;20447;-50
2021/05/19 05:57:23;;;;;;;2.23;2.03;;;10.40;99.90;;;;;;5073205;28;20501;-50
2021/05/19 05:59:50;;;;;;;2.53;2.10;;;10.40;99.90;;;;;;5073619;28;20528;-50
2021/05/19 06:02:16;;;;;;;1.77;1.63;;;10.30;99.90;;;;;;5069306;28;20512;-49
2021/05/19 06:04:43;;;;;;;3.33;2.10;;;10.40;99.90;;;;;;5072748;28;21014;-50
2021/05/19 06:07:09;;;;;;;2.40;2.20;;;10.30;99.90;;;;;;5073381;28;20844;-50
2021/05/19 06:09:36;;;;;;;2.53;2.17;;;10.30;99.90;;;;;;5072816;28;21199;-50
2021/05/19 06:12:03;;;;;;;2.33;2.13;;;10.40;99.90;;;;;;5071579;28;20446;-50
2021/05/19 06:14:30;;;;;;;2.97;1.80;;;10.40;99.90;;;;;;5072656;28;20466;-49
2021/05/19 06:16:59;;;;;;;5.63;1.97;;;10.50;99.90;;;;;;5073270;28;20455;-50
2021/05/19 06:19:25;;;;;;;2.10;1.90;;;10.50;99.90;;;;;;5073353;28;20470;-50
2021/05/19 06:21:52;;;;;;;1.50;1.40;;;10.60;99.90;;;;;;5073180;28;20450;-50
2021/05/19 06:24:19;;;;;;;2.80;1.50;;;10.60;99.90;;;;;;5073270;28;20442;-50
2021/05/19 06:26:45;;;;;;;2.27;2.10;;;10.70;99.90;;;;;;5072902;28;20536;-50
2021/05/19 06:29:13;;;;;;;2.30;2.10;;;10.70;99.90;;;;;;5073082;28;20470;-50
2021/05/19 06:31:40;;;;;;;3.87;1.80;;;10.70;99.90;;;;;;5072870;28;20453;-50
2021/05/19 06:34:06;;;;;;;3.90;2.80;;;10.80;99.90;;;;;;5073153;28;20446;-50
2021/05/19 06:36:33;;;;;;;3.00;2.10;;;10.90;99.90;;;;;;5072968;28;20454;-50
2021/05/19 06:38:59;;;;;;;3.93;1.90;;;11.00;99.90;;;;;;5072870;28;20487;-50
2021/05/19 06:41:26;;;;;;;1.93;1.60;;;11.10;99.90;;;;;;5072537;28;20459;-50
2021/05/19 06:43:53;;;;;;;1.77;1.40;;;11.10;99.90;;;;;;5073134;28;20456;-50
2021/05/19 06:46:20;;;;;;;1.50;1.40;;;11.10;99.90;;;;;;5072208;28;20504;-50
2021/05/19 06:48:47;;;;;;;1.90;1.60;;;11.10;99.90;;;;;;5072529;28;20827;-50
2021/05/19 06:51:15;;;;;;;4.87;1.47;;;11.00;99.90;;;;;;5076070;28;20951;-50
2021/05/19 06:53:42;;;;;;;3.07;1.50;;;11.00;99.90;;;;;;5072748;28;20461;-50
2021/05/19 06:56:08;;;;;;;2.07;1.43;;;11.00;99.90;;;;;;5072442;28;20492;-50
2021/05/19 06:58:35;;;;;;;4.97;1.67;;;11.00;99.90;;;;;;5072805;28;20489;-50
2021/05/19 07:01:02;;;;;;;1.47;1.37;;;11.00;99.90;;;;;;5072413;28;20479;-50
2021/05/19 07:03:28;;;;;;;2.33;1.93;;;11.10;99.90;;;;;;5072534;28;20450;-50
2021/05/19 07:05:55;;;;;;;1.50;1.40;;;11.40;99.90;;;;;;5072308;28;20455;-50
2021/05/19 07:08:22;;;;;;;1.80;1.70;;;11.80;99.90;;;;;;5072621;28;20447;-50
2021/05/19 07:10:48;;;;;;;3.33;2.13;;;11.90;99.90;;;;;;5072273;28;20987;-50
2021/05/19 07:13:18;;;;;;;1.20;1.10;;;12.10;99.90;;;;;;5072430;28;20473;-50
2021/05/19 07:15:46;;;;;;;1.50;1.30;;;12.30;99.90;;;;;;5072147;28;20455;-50
2021/05/19 07:18:15;;;;;;;2.53;1.60;;;12.30;99.90;;;;;;5072278;28;20991;-50
2021/05/19 07:20:42;;;;;;;2.20;1.50;;;12.80;99.90;;;;;;5072011;28;20829;-50
2021/05/19 07:23:09;;;;;;;1.83;1.13;;;12.90;99.90;;;;;;5072308;28;20527;-50
2021/05/19 07:25:36;;;;;;;2.17;1.53;;;12.70;99.90;;;;;;5072121;28;20454;-50
2021/05/19 07:28:04;;;;;;;1.40;1.30;;;12.80;99.90;;;;;;5072539;28;20442;-50
2021/05/19 07:30:31;;;;;;;2.27;1.30;;;12.40;99.90;;;;;;5072051;28;20524;-50
2021/05/19 07:32:57;;;;;;;1.57;1.47;;;12.40;99.90;;;;;;5072205;28;21042;-50
2021/05/19 07:35:24;;;;;;;1.50;1.40;;;12.30;99.90;;;;;;5071792;28;20458;-50
2021/05/19 07:37:50;;;;;;;1.30;1.20;;;12.30;99.90;;;;;;5071781;28;20508;-50
2021/05/19 07:40:17;;;;;;;1.10;1.00;;;12.30;99.90;;;;;;5071927;28;20473;-49
2021/05/19 07:42:44;;;;;;;1.40;1.00;;;12.30;99.90;;;;;;5071976;28;20944;-50
2021/05/19 07:45:11;;;;;;;1.10;1.00;;;12.10;99.90;;;;;;5070602;28;20450;-50
2021/05/19 07:47:38;;;;;;;1.27;0.93;;;12.10;99.90;;;;;;5071759;28;20526;-50
2021/05/19 07:50:06;;;;;;;1.77;0.80;;;12.20;99.90;;;;;;5069410;28;20479;-50
2021/05/19 07:52:32;;;;;;;0.80;0.80;;;12.30;99.90;;;;;;5068488;28;20454;-50
2021/05/19 07:54:59;;;;;;;2.20;0.77;;;12.20;99.90;;;;;;5056756;28;20848;-50
2021/05/19 07:57:27;;;;;;;1.10;1.00;;;12.00;99.90;;;;;;5057813;28;20474;-50
2021/05/19 08:00:06;;;;;;;0.80;0.80;;;11.90;99.90;;;;;;5071617;28;20518;-50
2021/05/19 08:02:33;;;;;;;2.60;0.90;;;11.90;99.90;;;;;;5071168;28;20527;-50
2021/05/19 08:05:00;;;;;;;3.13;1.27;;;11.90;99.90;;;;;;5071669;28;20447;-50
2021/05/19 08:07:26;;;;;;;0.83;0.83;;;12.00;99.90;;;;;;5071691;28;20450;-50
2021/05/19 08:09:53;;;;;;;1.05;0.95;;;12.00;99.90;;;;;;5059457;28;20434;-50
2021/05/19 08:12:19;;;;;;;0.87;0.80;;;12.00;99.90;;;;;;5070048;28;20686;-50
2021/05/19 08:14:47;;;;;;;1.03;0.93;;;12.20;99.90;;;;;;5070961;28;20451;-50
2021/05/19 08:17:16;;;;;;;1.90;1.10;;;12.40;99.90;;;;;;5071029;28;20543;-50
2021/05/19 08:19:43;;;;;;;1.40;1.30;;;12.60;99.90;;;;;;5065771;28;20487;-50
2021/05/19 08:22:12;;;;;;;1.53;0.80;;;12.70;99.90;;;;;;5052159;28;20450;-50
2021/05/19 08:24:39;;;;;;;1.10;1.00;;;12.90;99.90;;;;;;5055232;28;20992;-50
2021/05/19 08:27:06;;;;;;;10.10;1.40;;;13.00;99.90;;;;;;5070965;28;20485;-50
2021/05/19 08:29:34;;;;;;;1.90;0.90;;;13.30;99.90;;;;;;5070423;28;20470;-50
2021/05/19 08:32:01;;;;;;;1.30;1.20;;;13.30;99.90;;;;;;5069638;28;20451;-49
2021/05/19 08:34:28;;;;;;;6.87;1.30;;;13.00;99.90;;;;;;5062066;28;20439;-49
2021/05/19 08:36:55;;;;;;;1.20;1.10;;;12.80;99.90;;;;;;5056465;28;20447;-49
2021/05/19 08:39:21;;;;;;;1.03;0.93;;;12.70;99.90;;;;;;5075161;28;20493;-50
2021/05/19 08:41:50;;;;;;;0.90;0.90;;;12.60;99.90;;;;;;5075127;28;20469;-50
2021/05/19 08:44:17;;;;;;;0.90;0.90;;;12.60;99.90;;;;;;5074127;28;20454;-50
2021/05/19 08:46:44;;;;;;;1.53;0.90;;;12.70;99.90;;;;;;5065564;28;20451;-49
2021/05/19 08:49:12;;;;;;;4.97;0.90;;;12.80;99.90;;;;;;5074296;28;20474;-49
2021/05/19 08:51:39;;;;;;;2.60;1.63;;;12.80;99.90;;;;;;5074646;28;20473;-50
2021/05/19 08:54:08;;;;;;;2.33;1.33;;;12.60;99.90;;;;;;5074768;28;20487;-49
2021/05/19 08:56:37;;;;;;;1.00;0.90;;;12.50;99.90;;;;;;5074534;28;20459;-50
2021/05/19 08:59:04;;;;;;;3.50;1.17;;;12.50;99.90;;;;;;5074578;28;20494;-50
2021/05/19 09:01:40;;;;;;;1.00;0.90;;;12.60;99.90;;;;;;5074318;28;20940;-50
2021/05/19 09:04:08;;;;;;;1.30;1.20;;;12.60;99.90;;;;;;5074217;28;21151;-49
2021/05/19 09:06:36;;;;;;;1.20;1.00;;;13.60;99.90;;;;;;5073060;28;20478;-50
2021/05/19 09:09:21;;;;;;;3.13;1.33;;;14.70;99.90;;;;;;5074728;28;20490;-50
2021/05/19 09:12:08;;;;;;;2.60;1.00;;;15.80;99.90;;;;;;5074703;28;20449;-50
2021/05/19 09:14:38;;;;;;;1.73;0.83;;;16.00;99.90;;;;;;5074358;28;20453;-50
2021/05/19 09:17:25;;;;;;;1.87;1.10;;;15.60;99.90;;;;;;5073650;28;20504;-50
2021/05/19 09:19:58;;;;;;;1.40;1.03;;;15.20;99.90;;;;;;5073741;28;20528;-50
2021/05/19 09:22:29;;;;;;;1.00;0.90;;;14.50;99.90;;;;;;5074175;28;20446;-50
2021/05/19 09:24:56;;;;;;;1.13;0.97;;;14.30;99.90;;;;;;5074113;28;20451;-49
2021/05/19 09:27:24;;;;;;;1.20;1.10;;;14.20;99.90;;;;;;5074071;28;20789;-49
2021/05/19 09:29:51;;;;;;;1.10;1.00;;;14.10;99.90;;;;;;5074093;28;20474;-50
2021/05/19 09:32:19;;;;;;;1.10;1.00;;;13.80;99.90;;;;;;5073980;28;20455;-50
2021/05/19 09:34:52;;;;;;;0.80;0.80;;;13.70;99.90;;;;;;5073746;28;20473;-50
2021/05/19 09:37:25;;;;;;;0.90;0.90;;;13.80;99.90;;;;;;5074047;28;20455;-50
2021/05/19 09:39:56;;;;;;;1.57;1.43;;;14.40;99.90;;;;;;5073716;28;20850;-51
2021/05/19 09:42:24;;;;;;;2.40;1.00;;;15.00;99.90;;;;;;5074246;28;20838;-50
2021/05/19 09:44:52;;;;;;;1.00;0.90;;;15.40;99.90;;;;;;5072653;28;20976;-50
2021/05/19 09:47:39;;;;;;;1.43;1.00;;;15.20;99.90;;;;;;5073161;28;20971;-50
2021/05/19 09:50:07;;;;;;;1.10;1.00;;;15.00;99.90;;;;;;5053846;28;21000;-50
2021/05/19 09:52:34;;;;;;;1.03;1.00;;;14.90;99.90;;;;;;5053875;28;20824;-50
2021/05/19 09:55:11;;;;;;;1.90;1.17;;;14.60;99.90;;;;;;5053353;28;20450;-50
2021/05/19 09:57:41;;;;;;;8.10;1.63;;;14.10;99.90;;;;;;5071320;28;20485;-51
2021/05/19 10:00:11;;;;;;;2.37;1.37;;;13.30;99.90;;;;;;5073108;28;20479;-50
2021/05/19 10:02:38;;;;;;;3.50;1.13;;;11.90;99.90;;;;;;5073619;28;20443;-50
2021/05/19 10:05:12;;;;;;;3.90;1.27;;;10.40;99.90;;;;;;5073302;28;20937;-50
2021/05/19 10:07:38;;;;;;;3.17;1.37;;;10.00;99.90;;;;;;5095806;22;20551;-53
2021/05/19 10:10:06;;;;;;;2.07;1.20;;;10.10;99.90;;;;;;5073056;28;20480;-53
2021/05/19 10:12:34;;;;;;;2.17;1.20;;;10.10;99.90;;;;;;5072855;28;20447;-53
2021/05/19 10:15:04;;;;;;;4.10;1.30;;;10.40;99.90;;;;;;5073032;28;20798;-53
2021/05/19 10:17:32;;;;;;;1.87;1.30;;;10.50;99.90;;;;;;5072683;28;20485;-53
2021/05/19 10:20:03;;;;;;;2.70;2.17;;;10.70;99.90;;;;;;5072985;28;20546;-53
2021/05/19 10:22:32;;;;;;;1.50;1.40;;;10.80;99.90;;;;;;5073037;28;20447;-53
2021/05/19 10:25:03;;;;;;;1.67;1.57;;;10.80;99.90;;;;;;5072518;28;20447;-53
2021/05/19 10:27:50;;;;;;;1.93;1.60;;;11.50;99.90;;;;;;5072445;28;20466;-54
2021/05/19 10:30:35;;;;;;;2.20;1.40;;;13.00;99.90;;;;;;5072734;28;20659;-53
2021/05/19 10:33:02;;;;;;;2.27;1.00;;;14.20;99.90;;;;;;5058364;28;20451;-54
2021/05/19 10:35:30;;;;;;;2.00;1.10;;;14.80;99.90;;;;;;5071701;28;20469;-54
2021/05/19 10:38:14;;;;;;;1.70;1.27;;;15.40;99.90;;;;;;5071541;28;20490;-54
2021/05/19 10:40:49;;;;;;;1.10;1.00;;;15.90;99.90;;;;;;5071124;28;20803;-54
2021/05/19 10:43:17;;;;;;;1.27;1.00;;;16.20;99.90;;;;;;5072392;28;20525;-53
2021/05/19 10:45:55;;;;;;;0.83;0.80;;;16.00;99.90;;;;;;5072164;28;20442;-53
2021/05/19 10:48:37;;;;;;;1.00;1.00;;;15.40;99.90;;;;;;5072133;28;20462;-53
2021/05/19 10:51:35;;;;;;;2.87;1.77;;;14.10;99.90;;;;;;5072144;28;20443;-53
2021/05/19 11:00:06;;;;;;;4.87;2.70;;;8.50;99.90;;;;;;5072094;28;20586;-53
2021/05/19 11:03:05;;;;;;;3.00;2.20;;;8.80;99.90;;;;;;5071481;28;20447;-53
2021/05/19 11:05:35;;;;;;;2.63;2.43;;;8.50;99.90;;;;;;5072392;28;20454;-52
2021/05/19 11:08:20;;;;;;;2.37;1.80;;;8.30;99.90;;;;;;5071939;28;20506;-53
2021/05/19 11:10:49;;;;;;;1.50;1.40;;;8.00;99.90;;;;;;5072113;28;20450;-52
2021/05/19 11:13:17;;;;;;;8.20;1.40;;;8.00;99.90;;;;;;5072098;28;20461;-53
2021/05/19 11:16:00;;;;;;;2.20;1.57;;;8.10;99.90;;;;;;5071873;28;20454;-53
2021/05/19 11:18:45;;;;;;;3.83;1.70;;;8.20;99.90;;;;;;5071472;28;20860;-53
2021/05/19 11:21:16;;;;;;;2.63;1.40;;;8.30;99.90;;;;;;5071760;28;20466;-53
2021/05/19 11:23:43;;;;;;;3.27;1.57;;;8.60;99.90;;;;;;5071742;28;20446;-53
2021/05/19 11:26:10;;;;;;;2.83;2.10;;;8.90;99.90;;;;;;5071413;28;20446;-54
2021/05/19 11:28:36;;;;;;;3.90;2.73;;;9.10;99.90;;;;;;5071301;28;20466;-54
2021/05/19 11:31:13;;;;;;;3.00;2.57;;;9.00;99.90;;;;;;5071008;28;20447;-54
2021/05/19 11:33:54;;;;;;;12.43;2.77;;;8.90;99.90;;;;;;5071532;28;20462;-54
2021/05/19 11:36:32;;;;;;;2.80;2.60;;;9.00;99.90;;;;;;5071252;28;20461;-55
2021/05/19 11:39:00;;;;;;;2.43;2.23;;;9.10;99.90;;;;;;5071417;28;20478;-53
2021/05/19 11:41:27;;;;;;;4.13;2.30;;;9.30;99.90;;;;;;5071298;28;20458;-53
2021/05/19 11:43:53;;;;;;;3.20;2.33;;;9.40;99.90;;;;;;5071462;28;20455;-53
2021/05/19 11:46:20;;;;;;;3.40;2.33;;;9.40;99.90;;;;;;5070731;28;20447;-54
2021/05/19 11:48:51;;;;;;;4.80;2.57;;;9.50;99.90;;;;;;5071465;28;20516;-54
2021/05/19 11:51:19;;;;;;;2.30;2.10;;;9.60;99.90;;;;;;5071448;28;20458;-53
2021/05/19 11:54:01;;;;;;;2.57;2.30;;;9.50;99.90;;;;;;5071464;28;20458;-53
2021/05/19 11:56:44;;;;;;;3.73;2.70;;;9.60;99.90;;;;;;5070999;28;20459;-53
2021/05/19 11:59:18;;;;;;;2.60;2.40;;;9.80;99.90;;;;;;5071178;28;20490;-53
2021/05/19 12:01:56;;;;;;;7.17;2.07;;;10.10;99.90;;;;;;5071113;28;20896;-53
2021/05/19 12:04:23;;;;;;;3.13;1.73;;;10.20;99.90;;;;;;5056827;28;20442;-53
2021/05/19 12:06:50;;;;;;;1.50;1.40;;;10.50;99.90;;;;;;5070725;28;20498;-54
2021/05/19 12:09:18;;;;;;;2.00;1.63;;;10.60;99.90;;;;;;5070356;28;20439;-53
2021/05/19 12:11:46;;;;;;;1.43;1.33;;;10.90;99.90;;;;;;5071286;28;20881;-53
2021/05/19 12:14:12;;;;;;;1.27;1.17;;;11.20;99.90;;;;;;5071101;28;20457;-53
2021/05/19 12:16:40;;;;;;;6.13;1.57;;;11.50;99.90;;;;;;5070453;28;20466;-53
2021/05/19 12:19:10;;;;;;;1.97;1.40;;;11.80;99.90;;;;;;5069568;28;20479;-53
2021/05/19 12:21:39;;;;;;;3.57;1.60;;;12.30;99.90;;;;;;5069703;28;20454;-53
2021/05/19 12:24:07;;;;;;;1.53;1.10;;;12.70;99.90;;;;;;5050929;28;20443;-53
2021/05/19 12:26:36;;;;;;;1.20;1.10;;;12.90;99.90;;;;;;5050736;28;20444;-53
2021/05/19 12:29:03;;;;;;;2.57;1.20;;;13.00;99.90;;;;;;5050877;28;20455;-53
2021/05/19 12:31:31;;;;;;;2.17;1.10;;;12.80;99.90;;;;;;5051019;28;20440;-53
2021/05/19 12:33:58;;;;;;;4.50;1.10;;;12.90;99.90;;;;;;5054825;28;20822;-53
2021/05/19 12:36:30;;;;;;;1.00;1.00;;;12.80;99.90;;;;;;5050451;28;20451;-55
2021/05/19 12:39:02;;;;;;;1.07;1.00;;;12.90;99.90;;;;;;5056297;28;20944;-55
2021/05/19 12:41:46;;;;;;;1.20;0.97;;;13.10;99.90;;;;;;5070636;28;20447;-55
2021/05/19 12:44:14;;;;;;;1.33;0.70;;;13.30;99.90;;;;;;5070611;28;20482;-55
2021/05/19 12:46:41;;;;;;;1.97;1.20;;;13.50;99.90;;;;;;5070445;28;20466;-55
2021/05/19 12:49:11;;;;;;;0.83;0.83;;;13.50;99.90;;;;;;5070794;28;20830;-55
2021/05/19 12:51:48;;;;;;;0.70;0.70;;;13.30;99.90;;;;;;5070457;28;20447;-55
2021/05/19 12:54:19;;;;;;;1.10;0.80;;;13.30;99.90;;;;;;5069982;28;20454;-55
2021/05/19 12:56:46;;;;;;;0.80;0.70;;;13.20;99.90;;;;;;5070001;28;20548;-55
2021/05/19 12:59:13;;;;;;;0.70;0.60;;;13.30;99.90;;;;;;5070320;28;20485;-55
2021/05/19 13:01:44;;;;;;;0.80;0.73;;;13.60;99.90;;;;;;5067556;28;20459;-55
2021/05/19 13:04:11;;;;;;;0.97;0.70;;;13.60;99.90;;;;;;5070674;28;20498;-55
2021/05/19 13:06:38;;;;;;;0.70;0.57;;;13.80;99.90;;;;;;5070198;28;20502;-55
2021/05/19 13:09:07;;;;;;;0.70;0.60;;;13.80;99.90;;;;;;5070155;28;20443;-55
2021/05/19 13:11:35;;;;;;;0.60;0.50;;;13.90;99.90;;;;;;5070143;28;20439;-55
2021/05/19 13:14:04;;;;;;;4.13;0.80;;;13.90;99.90;;;;;;5050263;28;20493;-55
2021/05/19 13:16:33;;;;;;;0.80;0.77;;;14.10;99.90;;;;;;5065878;28;20450;-54
2021/05/19 13:19:04;;;;;;;0.90;0.83;;;14.10;99.90;;;;;;5070168;28;20478;-55
2021/05/19 13:21:40;;;;;;;0.70;0.70;;;14.10;99.90;;;;;;5073519;28;20457;-55
2021/05/19 13:24:10;;;;;;;1.10;1.00;;;13.90;99.90;;;;;;5073885;28;20450;-54
2021/05/19 13:26:38;;;;;;;0.70;0.70;;;13.80;99.90;;;;;;5072102;28;20579;-54
2021/05/19 13:29:07;;;;;;;1.43;0.90;;;13.90;99.90;;;;;;5067431;28;20533;-55
2021/05/19 13:31:38;;;;;;;1.63;0.83;;;13.70;99.90;;;;;;5073933;28;20450;-55
2021/05/19 13:34:13;;;;;;;2.00;0.73;;;13.50;99.90;;;;;;5073820;28;20533;-55
2021/05/19 13:36:41;;;;;;;0.90;0.80;;;13.30;99.90;;;;;;5072246;28;20920;-55
2021/05/19 13:39:10;;;;;;;0.80;0.70;;;13.40;99.90;;;;;;5073098;28;20227;-55
2021/05/19 13:41:37;;;;;;;1.83;0.83;;;13.50;99.90;;;;;;5073804;28;20439;-55